createdAt,value
2023-02-22T00:01:23.279Z,10.73
2023-02-22T00:03:52.608Z,12.23
2023-02-22T00:06:24.993Z,14.47
2023-02-22T00:08:53.411Z,16.23
2023-02-22T00:11:21.505Z,13.57
2023-02-22T00:13:50.775Z,12.37
2023-02-22T00:16:20.219Z,13.50
2023-02-22T00:18:48.460Z,13.50
2023-02-22T00:21:17.124Z,14.93
2023-02-22T00:23:48.000Z,12.50
2023-02-22T00:26:18.382Z,12.83
2023-02-22T00:28:47.327Z,14.20
2023-02-22T00:31:15.713Z,13.37
2023-02-22T00:33:43.966Z,13.20
2023-02-22T00:36:13.320Z,14.20
2023-02-22T00:38:41.586Z,19.33
2023-02-22T00:41:11.442Z,27.03
2023-02-22T00:43:39.153Z,21.00
2023-02-22T00:46:06.784Z,17.40
2023-02-22T00:48:34.366Z,13.50
2023-02-22T00:51:02.170Z,12.27
2023-02-22T00:53:30.099Z,10.73
2023-02-22T00:55:57.675Z,9.73
2023-02-22T00:58:26.906Z,10.23
2023-02-22T01:00:55.008Z,9.33
2023-02-22T01:03:22.560Z,10.23
2023-02-22T01:05:50.673Z,9.13
2023-02-22T01:08:18.732Z,9.83
2023-02-22T01:10:47.196Z,8.87
2023-02-22T01:13:14.843Z,12.63
2023-02-22T01:15:45.288Z,10.73
2023-02-22T01:18:17.198Z,9.73
2023-02-22T01:20:50.798Z,10.17
2023-02-22T01:23:18.418Z,8.40
2023-02-22T01:25:46.126Z,9.57
2023-02-22T01:28:15.186Z,9.07
2023-02-22T01:30:44.299Z,10.20
2023-02-22T01:33:12.777Z,9.67
2023-02-22T01:35:41.806Z,10.43
2023-02-22T01:38:10.239Z,10.03
2023-02-22T01:40:39.211Z,8.83
2023-02-22T01:43:20.259Z,8.87
2023-02-22T01:45:55.202Z,9.37
2023-02-22T01:48:27.358Z,8.77
2023-02-22T01:50:57.873Z,9.17
2023-02-22T01:53:28.107Z,9.83
2023-02-22T01:55:57.423Z,9.43
2023-02-22T01:58:25.929Z,9.13
2023-02-22T02:00:55.283Z,9.70
2023-02-22T02:03:27.500Z,8.80
2023-02-22T02:05:59.383Z,9.53
2023-02-22T02:08:36.033Z,10.63
2023-02-22T02:11:07.939Z,9.80
2023-02-22T02:13:36.490Z,10.60
2023-02-22T02:16:05.989Z,13.23
2023-02-22T02:18:33.826Z,11.37
2023-02-22T02:21:37.721Z,14.47
2023-02-22T02:24:22.689Z,10.67
2023-02-22T02:27:11.464Z,10.27
2023-02-22T02:30:19.256Z,10.20
2023-02-22T02:32:53.788Z,10.37
2023-02-22T02:35:29.865Z,9.60
2023-02-22T02:37:58.911Z,10.17
2023-02-22T02:40:31.512Z,9.97
2023-02-22T02:43:01.975Z,10.60
2023-02-22T02:45:32.062Z,10.27
2023-02-22T02:48:02.515Z,10.80
2023-02-22T02:50:35.057Z,9.90
2023-02-22T02:53:06.101Z,14.53
2023-02-22T02:55:36.605Z,8.80
2023-02-22T02:58:05.802Z,19.37
2023-02-22T03:00:39.268Z,8.00
2023-02-22T03:03:23.483Z,11.73
2023-02-22T03:06:07.163Z,8.97
2023-02-22T03:08:42.309Z,7.70
2023-02-22T03:11:16.155Z,6.87
2023-02-22T03:13:52.760Z,6.73
2023-02-22T03:16:24.594Z,6.80
2023-02-22T03:18:56.494Z,6.60
2023-02-22T03:21:27.616Z,7.00
2023-02-22T03:24:02.076Z,6.40
2023-02-22T03:26:34.333Z,6.70
2023-02-22T03:29:05.104Z,7.03
2023-02-22T03:31:37.254Z,8.20
2023-02-22T03:34:09.623Z,8.30
2023-02-22T03:36:40.797Z,9.07
2023-02-22T03:39:10.463Z,9.50
2023-02-22T03:41:39.789Z,8.47
2023-02-22T03:44:09.845Z,8.40
2023-02-22T03:46:40.224Z,12.07
2023-02-22T03:49:13.209Z,8.80
2023-02-22T03:51:40.997Z,9.70
2023-02-22T03:54:16.227Z,14.20
2023-02-22T03:56:47.429Z,25.27
2023-02-22T03:59:15.186Z,8.47
2023-02-22T04:01:42.721Z,8.53
2023-02-22T04:04:11.757Z,9.25
2023-02-22T04:06:39.297Z,11.07
2023-02-22T04:09:08.676Z,8.93
2023-02-22T04:11:36.257Z,8.30
2023-02-22T04:14:03.957Z,11.40
2023-02-22T04:16:31.671Z,9.40
2023-02-22T04:18:59.344Z,10.80
2023-02-22T04:21:28.733Z,7.80
2023-02-22T04:23:56.392Z,9.37
2023-02-22T04:26:23.885Z,8.07
2023-02-22T04:28:51.484Z,8.53
2023-02-22T04:31:19.640Z,8.47
2023-02-22T04:33:47.490Z,9.47
2023-02-22T04:36:16.082Z,10.20
2023-02-22T04:38:45.006Z,9.27
2023-02-22T04:41:12.974Z,8.37
2023-02-22T04:43:40.844Z,11.33
2023-02-22T04:46:08.662Z,7.90
2023-02-22T04:48:36.279Z,8.40
2023-02-22T04:51:03.866Z,7.77
2023-02-22T04:53:31.442Z,8.07
2023-02-22T04:56:00.329Z,8.60
2023-02-22T04:58:27.993Z,8.10
2023-02-22T05:00:55.550Z,7.73
2023-02-22T05:03:23.088Z,7.93
2023-02-22T05:05:50.617Z,7.87
2023-02-22T05:08:18.181Z,8.53
2023-02-22T05:10:45.928Z,8.53
2023-02-22T05:13:15.113Z,8.50
2023-02-22T05:15:42.759Z,8.83
2023-02-22T05:18:10.639Z,9.47
2023-02-22T05:20:38.322Z,10.07
2023-02-22T05:23:06.472Z,12.77
2023-02-22T05:25:34.322Z,9.30
2023-02-22T05:28:05.247Z,37.17
2023-02-22T05:30:36.458Z,10.77
2023-02-22T05:33:04.032Z,11.32
2023-02-22T05:35:31.728Z,9.73
2023-02-22T05:38:01.863Z,11.00
2023-02-22T05:40:30.238Z,21.52
2023-02-22T05:42:58.600Z,16.10
2023-02-22T05:45:28.026Z,9.17
2023-02-22T05:47:57.164Z,9.07
2023-02-22T05:50:25.344Z,8.73
2023-02-22T05:52:53.601Z,7.93
2023-02-22T05:55:23.088Z,8.80
2023-02-22T05:57:50.889Z,8.17
2023-02-22T06:00:23.257Z,7.30
2023-02-22T06:02:56.557Z,9.32
2023-02-22T06:05:24.824Z,8.17
2023-02-22T06:07:52.440Z,8.50
2023-02-22T06:10:20.119Z,9.48
2023-02-22T06:12:47.909Z,10.00
2023-02-22T06:15:15.845Z,9.70
2023-02-22T06:17:43.510Z,10.13
2023-02-22T06:20:14.962Z,11.43
2023-02-22T06:22:42.650Z,8.80
2023-02-22T06:25:11.573Z,9.97
2023-02-22T06:27:39.387Z,9.80
2023-02-22T06:30:08.233Z,7.27
2023-02-22T06:32:35.825Z,8.63
2023-02-22T06:35:03.333Z,7.87
2023-02-22T06:37:32.493Z,8.37
2023-02-22T06:40:04.973Z,12.37
2023-02-22T06:42:33.177Z,27.73
2023-02-22T06:45:00.897Z,10.30
2023-02-22T06:47:28.624Z,9.37
2023-02-22T06:49:56.759Z,9.00
2023-02-22T06:52:25.014Z,8.87
2023-02-22T06:54:53.959Z,9.40
2023-02-22T06:57:21.525Z,8.53
2023-02-22T06:59:49.047Z,9.17
2023-02-22T07:02:16.639Z,7.37
2023-02-22T07:04:46.385Z,8.10
2023-02-22T07:07:13.976Z,8.37
2023-02-22T07:09:41.652Z,12.50
2023-02-22T07:12:10.537Z,8.60
2023-02-22T07:14:38.066Z,18.83
2023-02-22T07:17:05.601Z,8.10
2023-02-22T07:19:33.464Z,6.87
2023-02-22T07:22:01.090Z,9.93
2023-02-22T07:24:29.062Z,11.17
2023-02-22T07:26:56.853Z,13.17
2023-02-22T07:29:25.710Z,8.70
2023-02-22T07:31:53.231Z,9.07
2023-02-22T07:34:20.785Z,8.03
2023-02-22T07:36:48.828Z,9.32
2023-02-22T07:39:16.372Z,8.50
2023-02-22T07:41:43.894Z,8.63
2023-02-22T07:44:11.416Z,9.40
2023-02-22T07:46:40.327Z,26.57
2023-02-22T07:49:07.861Z,8.93
2023-02-22T07:51:35.412Z,9.77
2023-02-22T07:54:02.927Z,8.90
2023-02-22T07:56:30.484Z,9.80
2023-02-22T07:58:58.006Z,9.63
2023-02-22T08:01:25.718Z,13.90
2023-02-22T08:03:55.853Z,11.13
2023-02-22T08:06:25.827Z,11.23
2023-02-22T08:08:53.364Z,24.80
2023-02-22T08:11:20.949Z,28.50
2023-02-22T08:13:48.531Z,15.27
2023-02-22T08:16:16.213Z,9.93
2023-02-22T08:18:43.766Z,9.83
2023-02-22T08:21:12.741Z,16.67
2023-02-22T08:23:40.280Z,10.95
2023-02-22T08:26:09.081Z,11.43
2023-02-22T08:28:36.647Z,10.30
2023-02-22T08:31:07.236Z,10.63
2023-02-22T08:33:35.515Z,9.53
2023-02-22T08:36:03.200Z,8.93
2023-02-22T08:38:33.912Z,10.80
2023-02-22T08:41:01.469Z,8.43
2023-02-22T08:43:29.615Z,9.90
2023-02-22T08:45:57.901Z,10.60
2023-02-22T08:48:25.602Z,8.97
2023-02-22T08:50:53.156Z,8.87
2023-02-22T08:53:20.701Z,8.20
2023-02-22T08:55:50.349Z,7.60
2023-02-22T08:58:17.880Z,8.60
2023-02-22T09:00:45.605Z,8.60
2023-02-22T09:03:14.601Z,7.03
2023-02-22T09:05:42.380Z,9.47
2023-02-22T09:08:10.297Z,7.63
2023-02-22T09:10:38.176Z,6.80
2023-02-22T09:13:07.569Z,7.63
2023-02-22T09:15:36.808Z,7.30
2023-02-22T09:18:05.678Z,8.93
2023-02-22T09:20:34.585Z,8.30
2023-02-22T09:23:03.969Z,8.37
2023-02-22T09:25:31.691Z,9.27
2023-02-22T09:27:59.221Z,10.07
2023-02-22T09:30:32.258Z,9.90
2023-02-22T09:33:02.247Z,10.43
2023-02-22T09:35:30.430Z,11.83
2023-02-22T09:37:59.459Z,10.60
2023-02-22T09:40:29.900Z,11.13
2023-02-22T09:43:08.678Z,11.70
2023-02-22T09:45:40.516Z,13.37
2023-02-22T09:48:21.192Z,13.40
2023-02-22T09:50:50.663Z,13.37
2023-02-22T09:53:29.680Z,12.97
2023-02-22T09:56:00.963Z,11.73
2023-02-22T09:58:34.325Z,11.07
2023-02-22T10:01:14.750Z,11.47
2023-02-22T10:03:50.617Z,11.37
2023-02-22T10:06:24.094Z,10.80
2023-02-22T10:08:56.486Z,11.70
2023-02-22T10:11:44.239Z,10.97
2023-02-22T10:14:29.298Z,10.30
2023-02-22T10:17:03.385Z,11.37
2023-02-22T10:19:33.413Z,10.20
2023-02-22T10:22:18.837Z,10.70
2023-02-22T10:24:53.789Z,10.40
2023-02-22T10:27:23.917Z,9.87
2023-02-22T10:29:56.163Z,10.40
2023-02-22T10:32:31.699Z,9.60
2023-02-22T10:34:59.928Z,15.30
2023-02-22T10:37:29.804Z,10.27
2023-02-22T10:40:05.426Z,9.07
2023-02-22T10:42:33.070Z,8.77
2023-02-22T10:45:00.768Z,9.00
2023-02-22T10:47:30.617Z,9.07
2023-02-22T10:50:00.484Z,8.70
2023-02-22T10:52:30.091Z,7.93
2023-02-22T10:55:14.144Z,8.80
2023-02-22T10:57:43.950Z,8.57
2023-02-22T11:00:19.688Z,8.93
2023-02-22T11:02:54.497Z,8.67
2023-02-22T11:05:36.764Z,8.83
2023-02-22T11:08:28.046Z,8.67
2023-02-22T11:10:57.501Z,8.07
2023-02-22T11:13:26.863Z,7.40
2023-02-22T11:15:55.304Z,6.90
2023-02-22T11:18:27.514Z,6.27
2023-02-22T11:21:03.972Z,7.47
2023-02-22T11:23:31.847Z,7.00
2023-02-22T11:26:07.318Z,6.40
2023-02-22T11:28:35.419Z,6.13
2023-02-22T11:31:17.457Z,6.20
2023-02-22T11:36:37.336Z,6.47
2023-02-22T11:39:11.634Z,7.03
2023-02-22T11:41:39.370Z,7.63
2023-02-22T11:44:21.426Z,6.30
2023-02-22T11:46:49.258Z,6.57
2023-02-22T11:49:20.048Z,5.47
2023-02-22T11:51:57.389Z,5.63
2023-02-22T11:54:34.586Z,6.13
2023-02-22T11:57:16.026Z,5.37
2023-02-22T11:59:48.688Z,5.30
2023-02-22T12:02:30.853Z,4.80
2023-02-22T12:05:13.332Z,4.53
2023-02-22T12:07:56.378Z,4.80
2023-02-22T12:10:34.908Z,4.40
2023-02-22T12:13:10.960Z,4.90
2023-02-22T12:15:42.937Z,4.73
2023-02-22T12:18:14.281Z,5.20
2023-02-22T12:20:47.639Z,4.00
2023-02-22T12:23:20.026Z,3.80
2023-02-22T12:25:58.371Z,3.73
2023-02-22T12:28:31.798Z,4.63
2023-02-22T12:31:07.813Z,4.18
2023-02-22T12:33:48.826Z,4.43
2023-02-22T12:36:20.858Z,4.37
2023-02-22T12:38:52.973Z,4.67
2023-02-22T12:41:27.999Z,4.27
2023-02-22T12:43:59.805Z,3.50
2023-02-22T12:46:31.748Z,4.33
2023-02-22T12:49:03.371Z,4.20
2023-02-22T12:51:35.673Z,4.13
2023-02-22T12:54:08.689Z,4.07
2023-02-22T12:56:41.153Z,3.53
2023-02-22T12:59:13.492Z,3.60
2023-02-22T13:01:43.331Z,3.40
2023-02-22T13:04:20.666Z,3.30
2023-02-22T13:07:02.634Z,3.87
2023-02-22T13:10:00.608Z,3.17
2023-02-22T13:12:33.601Z,3.80
2023-02-22T13:15:09.479Z,3.43
2023-02-22T13:17:41.721Z,3.43
2023-02-22T13:20:14.320Z,3.43
2023-02-22T13:22:46.621Z,3.67
2023-02-22T13:25:17.477Z,3.80
2023-02-22T13:27:48.696Z,3.90
2023-02-22T13:30:21.881Z,3.73
2023-02-22T13:33:04.007Z,4.87
2023-02-22T13:35:40.944Z,4.20
2023-02-22T13:38:47.445Z,4.57
2023-02-22T13:41:37.417Z,4.63
2023-02-22T13:44:19.945Z,4.90
2023-02-22T13:47:10.297Z,4.60
2023-02-22T13:49:51.382Z,4.70
2023-02-22T13:52:21.349Z,4.33
2023-02-22T13:54:54.409Z,5.37
2023-02-22T13:57:24.654Z,4.50
2023-02-22T14:00:21.007Z,4.73
2023-02-22T14:03:01.276Z,4.17
2023-02-22T14:05:51.884Z,4.80
2023-02-22T14:08:46.091Z,4.30
2023-02-22T14:11:56.761Z,4.13
2023-02-22T14:14:25.910Z,4.53
2023-02-22T14:17:22.778Z,4.20
2023-02-22T14:20:16.640Z,3.80
2023-02-22T14:22:46.950Z,4.30
2023-02-22T14:25:34.239Z,4.30
2023-02-22T14:28:02.853Z,4.80
2023-02-22T14:30:33.320Z,3.97
2023-02-22T14:33:01.619Z,5.18
2023-02-22T14:35:47.871Z,4.70
2023-02-22T14:38:19.182Z,3.93
2023-02-22T14:40:49.350Z,3.90
2023-02-22T14:43:20.132Z,7.57
2023-02-22T14:45:54.265Z,5.03
2023-02-22T14:48:28.408Z,4.47
2023-02-22T14:51:02.017Z,3.87
2023-02-22T14:53:39.222Z,4.40
2023-02-22T14:56:11.786Z,4.13
2023-02-22T14:58:45.162Z,3.97
2023-02-22T15:01:33.955Z,4.07
2023-02-22T15:04:21.470Z,3.80
2023-02-22T15:06:49.406Z,3.40
2023-02-22T15:09:25.110Z,3.37
2023-02-22T15:11:56.214Z,3.93
2023-02-22T15:14:26.915Z,3.73
2023-02-22T15:16:57.815Z,3.37
2023-02-22T15:19:28.419Z,3.33
2023-02-22T15:21:57.474Z,3.03
2023-02-22T15:24:27.956Z,3.03
2023-02-22T15:27:02.486Z,4.13
2023-02-22T15:29:36.301Z,3.13
2023-02-22T15:32:19.792Z,4.03
2023-02-22T15:34:47.438Z,4.00
2023-02-22T15:37:25.144Z,3.57
2023-02-22T15:39:59.189Z,3.43
2023-02-22T15:42:29.422Z,3.17
2023-02-22T15:44:58.081Z,3.70
2023-02-22T15:47:29.261Z,3.60
2023-02-22T15:50:18.237Z,4.47
2023-02-22T15:52:53.136Z,3.57
2023-02-22T15:55:24.789Z,3.47
2023-02-22T15:57:53.474Z,3.57
2023-02-22T16:00:23.769Z,4.43
2023-02-22T16:02:52.931Z,4.77
2023-02-22T16:05:20.573Z,4.00
2023-02-22T16:07:49.987Z,4.43
2023-02-22T16:10:22.734Z,4.50
2023-02-22T16:12:50.361Z,4.87
2023-02-22T16:15:20.010Z,4.60
2023-02-22T16:18:01.694Z,5.50
2023-02-22T16:20:36.426Z,5.47
2023-02-22T16:23:26.048Z,4.70
2023-02-22T16:26:08.060Z,4.07
2023-02-22T16:28:35.973Z,4.47
2023-02-22T16:31:04.251Z,4.47
2023-02-22T16:33:34.069Z,4.93
2023-02-22T16:36:08.115Z,6.00
2023-02-22T16:38:38.480Z,10.00
2023-02-22T16:41:07.305Z,8.63
2023-02-22T16:43:36.827Z,7.43
2023-02-22T16:46:06.810Z,6.57
2023-02-22T16:48:38.106Z,6.27
2023-02-22T16:51:14.757Z,6.00
2023-02-22T16:53:42.457Z,6.23
2023-02-22T16:56:11.610Z,7.13
2023-02-22T16:58:41.433Z,7.03
2023-02-22T17:01:09.470Z,7.83
2023-02-22T17:03:38.021Z,7.97
2023-02-22T17:06:06.077Z,8.53
2023-02-22T17:08:34.939Z,9.03
2023-02-22T17:11:03.213Z,9.43
2023-02-22T17:13:30.877Z,10.60
2023-02-22T17:15:58.812Z,10.37
2023-02-22T17:18:28.785Z,13.40
2023-02-22T17:20:57.341Z,13.35
2023-02-22T17:23:27.530Z,13.10
2023-02-22T17:25:59.263Z,13.70
2023-02-22T17:28:27.520Z,12.70
2023-02-22T17:31:00.482Z,13.33
2023-02-22T17:33:30.639Z,13.57
2023-02-22T17:35:59.817Z,15.37
2023-02-22T17:38:29.051Z,15.30
2023-02-22T17:40:59.317Z,15.93
2023-02-22T17:43:28.749Z,16.70
2023-02-22T17:45:56.431Z,17.10
2023-02-22T17:48:24.629Z,17.90
2023-02-22T17:50:52.793Z,17.27
2023-02-22T17:53:24.998Z,19.20
2023-02-22T17:55:53.087Z,19.70
2023-02-22T17:58:23.542Z,23.97
2023-02-22T18:00:51.825Z,21.60
2023-02-22T18:03:21.951Z,24.40
2023-02-22T18:05:51.102Z,21.73
2023-02-22T18:08:18.767Z,21.23
2023-02-22T18:10:47.188Z,22.50
2023-02-22T18:13:17.868Z,19.30
2023-02-22T18:15:48.528Z,19.83
2023-02-22T18:18:17.667Z,18.73
2023-02-22T18:20:45.750Z,15.57
2023-02-22T18:23:15.997Z,15.63
2023-02-22T18:25:57.146Z,15.23
2023-02-22T18:28:32.218Z,14.10
2023-02-22T18:31:01.264Z,12.17
2023-02-22T18:33:28.999Z,12.43
2023-02-22T18:35:56.552Z,14.90
2023-02-22T18:38:24.752Z,18.60
2023-02-22T18:40:59.841Z,25.67
2023-02-22T18:43:27.801Z,20.27
2023-02-22T18:45:55.587Z,18.33
2023-02-22T18:48:24.442Z,16.63
2023-02-22T18:50:51.972Z,14.47
2023-02-22T18:53:19.520Z,17.83
2023-02-22T18:55:47.094Z,14.30
2023-02-22T18:58:14.675Z,10.97
2023-02-22T19:00:42.837Z,19.73
2023-02-22T19:03:10.545Z,46.07
2023-02-22T19:05:39.552Z,82.17
2023-02-22T19:08:11.196Z,24.00
2023-02-22T19:10:39.072Z,21.33
2023-02-22T19:13:10.754Z,17.93
2023-02-22T19:15:39.457Z,11.93
2023-02-22T19:18:07.149Z,11.13
2023-02-22T19:20:34.736Z,12.10
2023-02-22T19:23:03.672Z,12.37
2023-02-22T19:25:31.198Z,20.70
2023-02-22T19:27:59.096Z,23.50
2023-02-22T19:30:27.966Z,18.13
2023-02-22T19:32:55.744Z,19.57
2023-02-22T19:35:27.071Z,20.27
2023-02-22T19:37:55.421Z,18.33
2023-02-22T19:40:24.332Z,16.80
2023-02-22T19:42:53.038Z,17.70
2023-02-22T19:45:20.933Z,13.30
2023-02-22T19:47:48.848Z,14.07
2023-02-22T19:50:18.672Z,13.17
2023-02-22T19:52:46.297Z,13.47
2023-02-22T19:55:14.248Z,11.73
2023-02-22T19:57:46.313Z,21.53
2023-02-22T20:00:23.981Z,12.90
2023-02-22T20:03:05.855Z,14.77
2023-02-22T20:05:37.278Z,11.63
2023-02-22T20:08:05.087Z,15.83
2023-02-22T20:10:34.373Z,13.50
2023-02-22T20:13:03.480Z,12.90
2023-02-22T20:15:31.348Z,12.63
2023-02-22T20:18:00.125Z,11.37
2023-02-22T20:20:30.501Z,11.93
2023-02-22T20:22:58.709Z,12.13
2023-02-22T20:25:26.280Z,12.23
2023-02-22T20:27:53.782Z,12.23
2023-02-22T20:30:23.051Z,22.17
2023-02-22T20:32:50.796Z,23.43
2023-02-22T20:35:18.531Z,23.40
2023-02-22T20:37:46.440Z,22.00
2023-02-22T20:40:13.989Z,24.10
2023-02-22T20:42:41.603Z,23.60
2023-02-22T20:45:11.927Z,21.60
2023-02-22T20:47:40.953Z,24.53
2023-02-22T20:50:09.904Z,24.73
2023-02-22T20:52:37.532Z,29.27
2023-02-22T20:55:06.185Z,23.87
2023-02-22T20:57:33.744Z,19.77
2023-02-22T21:00:01.281Z,19.00
2023-02-22T21:02:28.812Z,18.93
2023-02-22T21:04:58.152Z,18.20
2023-02-22T21:07:25.812Z,17.97
2023-02-22T21:09:53.384Z,16.40
2023-02-22T21:12:21.075Z,17.37
2023-02-22T21:14:48.700Z,17.77
2023-02-22T21:17:21.483Z,16.20
2023-02-22T21:19:49.060Z,19.17
2023-02-22T21:22:17.935Z,23.43
2023-02-22T21:24:45.515Z,26.60
2023-02-22T21:27:13.052Z,26.20
2023-02-22T21:29:40.702Z,21.17
2023-02-22T21:32:10.783Z,21.27
2023-02-22T21:34:39.178Z,27.50
2023-02-22T21:37:08.442Z,33.70
2023-02-22T21:39:37.346Z,25.83
2023-02-22T21:42:07.155Z,17.93
2023-02-22T21:44:34.681Z,17.23
2023-02-22T21:47:02.235Z,14.33
2023-02-22T21:49:29.981Z,12.60
2023-02-22T21:51:57.609Z,15.80
2023-02-22T21:54:27.949Z,21.73
2023-02-22T21:56:57.083Z,17.60
2023-02-22T21:59:24.872Z,13.67
2023-02-22T22:01:55.826Z,12.60
2023-02-22T22:04:27.397Z,12.60
2023-02-22T22:06:57.307Z,15.60
2023-02-22T22:09:28.901Z,14.47
2023-02-22T22:11:59.307Z,13.37
2023-02-22T22:14:27.357Z,17.37
2023-02-22T22:16:58.427Z,13.83
2023-02-22T22:19:26.454Z,12.90
2023-02-22T22:21:54.440Z,12.13
2023-02-22T22:24:23.429Z,12.60
2023-02-22T22:26:54.524Z,12.40
2023-02-22T22:29:24.565Z,13.77
2023-02-22T22:31:52.889Z,15.10
2023-02-22T22:34:20.813Z,16.37
2023-02-22T22:36:48.464Z,14.70
2023-02-22T22:39:16.069Z,15.23
2023-02-22T22:41:45.089Z,14.40
2023-02-22T22:44:15.221Z,15.60
2023-02-22T22:46:49.054Z,15.63
2023-02-22T22:49:17.166Z,19.83
2023-02-22T22:51:47.316Z,18.57
2023-02-22T22:54:15.694Z,17.13
2023-02-22T22:56:43.239Z,16.73
2023-02-22T22:59:13.788Z,15.90
2023-02-22T23:01:44.346Z,16.03
2023-02-22T23:04:16.201Z,17.03
2023-02-22T23:06:45.307Z,14.60
2023-02-22T23:09:18.708Z,15.23
2023-02-22T23:11:50.504Z,14.40
2023-02-22T23:14:19.786Z,13.80
2023-02-22T23:16:47.409Z,13.47
2023-02-22T23:19:16.703Z,12.47
2023-02-22T23:21:44.757Z,12.13
2023-02-22T23:24:15.151Z,11.00
2023-02-22T23:26:43.052Z,11.80
2023-02-22T23:29:10.580Z,11.27
2023-02-22T23:31:42.679Z,11.37
2023-02-22T23:34:11.334Z,11.97
2023-02-22T23:36:44.269Z,11.83
2023-02-22T23:39:12.406Z,11.73
2023-02-22T23:41:39.957Z,15.50
2023-02-22T23:44:13.963Z,15.40
2023-02-22T23:46:42.134Z,15.47
2023-02-22T23:49:10.185Z,15.97
2023-02-22T23:51:41.943Z,14.70
2023-02-22T23:54:14.140Z,15.83
2023-02-22T23:56:47.100Z,14.60
2023-02-22T23:59:15.538Z,15.67
